sensor_id;sensor_type;location;lat;lon;timestamp;temperature;humidity
429;DHT22;201;48.758;9.290;2022-11-20T00:01:39;5.40;15.60
429;DHT22;201;48.758;9.290;2022-11-20T00:04:05;5.50;15.80
429;DHT22;201;48.758;9.290;2022-11-20T00:06:31;5.40;15.60
429;DHT22;201;48.758;9.290;2022-11-20T00:08:58;5.40;15.60
429;DHT22;201;48.758;9.290;2022-11-20T00:11:27;5.40;15.60
429;DHT22;201;48.758;9.290;2022-11-20T00:13:55;5.40;15.60
429;DHT22;201;48.758;9.290;2022-11-20T00:16:24;5.40;15.60
429;DHT22;201;48.758;9.290;2022-11-20T00:18:50;5.40;15.60
429;DHT22;201;48.758;9.290;2022-11-20T00:21:18;5.30;15.60
429;DHT22;201;48.758;9.290;2022-11-20T00:23:44;5.30;15.60
429;DHT22;201;48.758;9.290;2022-11-20T00:26:15;5.40;15.70
429;DHT22;201;48.758;9.290;2022-11-20T00:28:42;5.40;16.30
429;DHT22;201;48.758;9.290;2022-11-20T00:31:14;5.40;15.60
429;DHT22;201;48.758;9.290;2022-11-20T00:33:40;5.40;15.60
429;DHT22;201;48.758;9.290;2022-11-20T00:36:14;5.50;15.70
429;DHT22;201;48.758;9.290;2022-11-20T00:38:40;5.50;15.70
429;DHT22;201;48.758;9.290;2022-11-20T00:41:08;5.50;15.70
429;DHT22;201;48.758;9.290;2022-11-20T00:43:34;5.60;15.80
429;DHT22;201;48.758;9.290;2022-11-20T00:46:09;5.60;15.50
429;DHT22;201;48.758;9.290;2022-11-20T00:48:35;5.60;14.90
429;DHT22;201;48.758;9.290;2022-11-20T00:51:01;5.60;14.50
429;DHT22;201;48.758;9.290;2022-11-20T00:53:27;5.70;14.40
429;DHT22;201;48.758;9.290;2022-11-20T00:55:57;5.70;14.10
429;DHT22;201;48.758;9.290;2022-11-20T00:58:24;5.70;14.10
429;DHT22;201;48.758;9.290;2022-11-20T01:00:49;5.70;13.80
429;DHT22;201;48.758;9.290;2022-11-20T01:03:16;5.80;13.90
429;DHT22;201;48.758;9.290;2022-11-20T01:05:42;5.70;13.50
429;DHT22;201;48.758;9.290;2022-11-20T01:08:08;5.70;13.40
429;DHT22;201;48.758;9.290;2022-11-20T01:10:33;5.70;13.40
429;DHT22;201;48.758;9.290;2022-11-20T01:12:59;5.70;13.60
429;DHT22;201;48.758;9.290;2022-11-20T01:15:43;5.70;13.20
429;DHT22;201;48.758;9.290;2022-11-20T01:18:08;5.70;12.90
429;DHT22;201;48.758;9.290;2022-11-20T01:20:35;5.70;13.00
429;DHT22;201;48.758;9.290;2022-11-20T01:23:02;5.70;13.30
429;DHT22;201;48.758;9.290;2022-11-20T01:25:28;5.70;12.60
429;DHT22;201;48.758;9.290;2022-11-20T01:27:53;5.70;12.90
429;DHT22;201;48.758;9.290;2022-11-20T01:30:19;5.70;12.90
429;DHT22;201;48.758;9.290;2022-11-20T01:32:44;5.60;12.90
429;DHT22;201;48.758;9.290;2022-11-20T01:35:10;5.60;12.60
429;DHT22;201;48.758;9.290;2022-11-20T01:37:35;5.60;12.30
429;DHT22;201;48.758;9.290;2022-11-20T01:40:01;5.50;12.40
429;DHT22;201;48.758;9.290;2022-11-20T01:42:27;5.50;12.50
429;DHT22;201;48.758;9.290;2022-11-20T01:48:14;5.40;12.30
429;DHT22;201;48.758;9.290;2022-11-20T01:50:41;5.40;11.40
429;DHT22;201;48.758;9.290;2022-11-20T01:53:11;5.30;11.60
429;DHT22;201;48.758;9.290;2022-11-20T01:55:53;5.40;11.90
429;DHT22;201;48.758;9.290;2022-11-20T01:58:23;5.40;12.20
429;DHT22;201;48.758;9.290;2022-11-20T02:00:50;5.40;12.40
429;DHT22;201;48.758;9.290;2022-11-20T02:03:17;5.50;12.70
429;DHT22;201;48.758;9.290;2022-11-20T02:08:44;5.50;12.20
429;DHT22;201;48.758;9.290;2022-11-20T02:11:09;5.50;12.20
429;DHT22;201;48.758;9.290;2022-11-20T02:13:35;5.50;11.50
429;DHT22;201;48.758;9.290;2022-11-20T02:16:25;5.40;11.40
429;DHT22;201;48.758;9.290;2022-11-20T02:18:52;5.40;11.40
429;DHT22;201;48.758;9.290;2022-11-20T02:24:19;5.40;11.40
429;DHT22;201;48.758;9.290;2022-11-20T02:29:16;5.40;11.70
429;DHT22;201;48.758;9.290;2022-11-20T02:31:43;5.50;12.00
429;DHT22;201;48.758;9.290;2022-11-20T02:34:09;5.50;11.90
429;DHT22;201;48.758;9.290;2022-11-20T02:36:35;5.50;11.80
429;DHT22;201;48.758;9.290;2022-11-20T02:39:03;5.60;11.60
429;DHT22;201;48.758;9.290;2022-11-20T02:41:33;5.60;11.60
429;DHT22;201;48.758;9.290;2022-11-20T02:43:59;5.50;11.50
429;DHT22;201;48.758;9.290;2022-11-20T02:46:24;5.50;11.40
429;DHT22;201;48.758;9.290;2022-11-20T02:48:50;5.50;11.40
429;DHT22;201;48.758;9.290;2022-11-20T02:51:16;5.50;11.50
429;DHT22;201;48.758;9.290;2022-11-20T02:53:41;5.50;11.50
429;DHT22;201;48.758;9.290;2022-11-20T02:56:07;5.50;11.30
429;DHT22;201;48.758;9.290;2022-11-20T02:58:32;5.50;11.50
429;DHT22;201;48.758;9.290;2022-11-20T03:00:58;5.40;11.40
429;DHT22;201;48.758;9.290;2022-11-20T03:03:24;5.30;11.40
429;DHT22;201;48.758;9.290;2022-11-20T03:05:49;5.30;12.00
429;DHT22;201;48.758;9.290;2022-11-20T03:08:15;5.30;12.30
429;DHT22;201;48.758;9.290;2022-11-20T03:10:40;5.40;12.60
429;DHT22;201;48.758;9.290;2022-11-20T03:13:06;5.40;12.40
429;DHT22;201;48.758;9.290;2022-11-20T03:15:31;5.50;12.00
429;DHT22;201;48.758;9.290;2022-11-20T03:17:57;5.50;11.90
429;DHT22;201;48.758;9.290;2022-11-20T03:20:23;5.50;11.50
429;DHT22;201;48.758;9.290;2022-11-20T03:22:48;5.50;11.50
429;DHT22;201;48.758;9.290;2022-11-20T03:25:14;5.50;11.50
429;DHT22;201;48.758;9.290;2022-11-20T03:27:39;5.50;11.50
429;DHT22;201;48.758;9.290;2022-11-20T03:30:05;5.50;11.50
429;DHT22;201;48.758;9.290;2022-11-20T03:32:31;5.50;11.50
429;DHT22;201;48.758;9.290;2022-11-20T03:34:57;5.50;11.50
429;DHT22;201;48.758;9.290;2022-11-20T03:37:23;5.50;11.50
429;DHT22;201;48.758;9.290;2022-11-20T03:39:48;5.40;11.50
429;DHT22;201;48.758;9.290;2022-11-20T03:42:14;5.40;11.40
429;DHT22;201;48.758;9.290;2022-11-20T03:44:58;5.30;11.40
429;DHT22;201;48.758;9.290;2022-11-20T03:47:23;5.30;11.40
429;DHT22;201;48.758;9.290;2022-11-20T03:49:49;5.30;11.40
429;DHT22;201;48.758;9.290;2022-11-20T03:52:15;5.30;11.40
429;DHT22;201;48.758;9.290;2022-11-20T03:54:40;5.20;11.30
429;DHT22;201;48.758;9.290;2022-11-20T03:57:06;5.10;11.20
429;DHT22;201;48.758;9.290;2022-11-20T03:59:31;5.00;11.70
429;DHT22;201;48.758;9.290;2022-11-20T04:01:57;4.90;11.80
429;DHT22;201;48.758;9.290;2022-11-20T04:04:22;4.90;12.20
429;DHT22;201;48.758;9.290;2022-11-20T04:06:48;4.80;12.20
429;DHT22;201;48.758;9.290;2022-11-20T04:09:13;4.80;12.60
429;DHT22;201;48.758;9.290;2022-11-20T04:11:40;4.80;12.70
429;DHT22;201;48.758;9.290;2022-11-20T04:14:11;4.80;12.60
429;DHT22;201;48.758;9.290;2022-11-20T04:16:37;4.80;12.50
429;DHT22;201;48.758;9.290;2022-11-20T04:19:06;4.90;12.50
429;DHT22;201;48.758;9.290;2022-11-20T04:21:32;4.90;12.90
429;DHT22;201;48.758;9.290;2022-11-20T04:23:58;4.90;12.70
429;DHT22;201;48.758;9.290;2022-11-20T04:26:25;4.90;12.80
429;DHT22;201;48.758;9.290;2022-11-20T04:28:52;4.90;12.50
429;DHT22;201;48.758;9.290;2022-11-20T04:31:21;5.00;12.40
429;DHT22;201;48.758;9.290;2022-11-20T04:33:47;5.00;12.80
429;DHT22;201;48.758;9.290;2022-11-20T04:38:38;5.10;11.70
429;DHT22;201;48.758;9.290;2022-11-20T04:41:06;5.10;11.80
429;DHT22;201;48.758;9.290;2022-11-20T04:43:32;5.00;11.60
429;DHT22;201;48.758;9.290;2022-11-20T04:45:58;5.10;11.60
429;DHT22;201;48.758;9.290;2022-11-20T04:48:24;5.10;11.20
429;DHT22;201;48.758;9.290;2022-11-20T04:50:51;5.10;11.30
429;DHT22;201;48.758;9.290;2022-11-20T04:53:17;5.10;11.20
429;DHT22;201;48.758;9.290;2022-11-20T04:55:42;5.10;11.20
429;DHT22;201;48.758;9.290;2022-11-20T04:58:08;5.10;11.10
429;DHT22;201;48.758;9.290;2022-11-20T05:00:33;5.10;10.90
429;DHT22;201;48.758;9.290;2022-11-20T05:02:59;5.10;11.20
429;DHT22;201;48.758;9.290;2022-11-20T05:05:24;5.10;11.20
429;DHT22;201;48.758;9.290;2022-11-20T05:07:50;5.10;11.20
429;DHT22;201;48.758;9.290;2022-11-20T05:10:15;5.10;11.20
429;DHT22;201;48.758;9.290;2022-11-20T05:12:41;5.10;11.10
429;DHT22;201;48.758;9.290;2022-11-20T05:15:07;5.10;10.90
429;DHT22;201;48.758;9.290;2022-11-20T05:17:33;5.10;10.90
429;DHT22;201;48.758;9.290;2022-11-20T05:19:58;5.20;11.30
429;DHT22;201;48.758;9.290;2022-11-20T05:22:24;5.20;11.10
429;DHT22;201;48.758;9.290;2022-11-20T05:24:49;5.20;11.20
429;DHT22;201;48.758;9.290;2022-11-20T05:27:15;5.20;11.30
429;DHT22;201;48.758;9.290;2022-11-20T05:29:40;5.20;11.20
429;DHT22;201;48.758;9.290;2022-11-20T05:32:06;5.20;11.10
429;DHT22;201;48.758;9.290;2022-11-20T05:34:34;5.20;11.10
429;DHT22;201;48.758;9.290;2022-11-20T05:36:59;5.20;11.00
429;DHT22;201;48.758;9.290;2022-11-20T05:39:25;5.20;11.00
429;DHT22;201;48.758;9.290;2022-11-20T05:41:50;5.20;11.10
429;DHT22;201;48.758;9.290;2022-11-20T05:44:36;5.30;11.00
429;DHT22;201;48.758;9.290;2022-11-20T05:47:01;5.30;10.80
429;DHT22;201;48.758;9.290;2022-11-20T05:49:27;5.40;11.00
429;DHT22;201;48.758;9.290;2022-11-20T05:51:52;5.40;10.70
429;DHT22;201;48.758;9.290;2022-11-20T05:54:18;5.40;10.70
429;DHT22;201;48.758;9.290;2022-11-20T05:56:44;5.50;10.80
429;DHT22;201;48.758;9.290;2022-11-20T05:59:09;5.50;10.60
429;DHT22;201;48.758;9.290;2022-11-20T06:01:35;5.50;10.40
429;DHT22;201;48.758;9.290;2022-11-20T06:04:01;5.50;10.40
429;DHT22;201;48.758;9.290;2022-11-20T06:06:27;5.50;10.10
429;DHT22;201;48.758;9.290;2022-11-20T06:08:52;5.50;9.80
429;DHT22;201;48.758;9.290;2022-11-20T06:11:18;5.50;10.00
429;DHT22;201;48.758;9.290;2022-11-20T06:13:45;5.50;9.90
429;DHT22;201;48.758;9.290;2022-11-20T06:16:12;5.50;9.70
429;DHT22;201;48.758;9.290;2022-11-20T06:18:39;5.50;9.80
429;DHT22;201;48.758;9.290;2022-11-20T06:21:09;5.50;9.80
429;DHT22;201;48.758;9.290;2022-11-20T06:23:35;5.50;9.60
429;DHT22;201;48.758;9.290;2022-11-20T06:26:03;5.50;9.70
429;DHT22;201;48.758;9.290;2022-11-20T06:28:29;5.50;9.70
429;DHT22;201;48.758;9.290;2022-11-20T06:30:55;5.50;10.20
429;DHT22;201;48.758;9.290;2022-11-20T06:33:20;5.50;9.60
429;DHT22;201;48.758;9.290;2022-11-20T06:35:46;5.60;9.70
429;DHT22;201;48.758;9.290;2022-11-20T06:38:12;5.60;9.70
429;DHT22;201;48.758;9.290;2022-11-20T06:40:40;5.60;9.30
429;DHT22;201;48.758;9.290;2022-11-20T06:43:06;5.60;9.20
429;DHT22;201;48.758;9.290;2022-11-20T06:45:31;5.60;9.10
429;DHT22;201;48.758;9.290;2022-11-20T06:47:57;5.60;8.90
429;DHT22;201;48.758;9.290;2022-11-20T06:50:23;5.60;8.90
429;DHT22;201;48.758;9.290;2022-11-20T06:52:49;5.60;8.90
429;DHT22;201;48.758;9.290;2022-11-20T06:55:14;5.60;9.10
429;DHT22;201;48.758;9.290;2022-11-20T06:57:40;5.50;9.00
429;DHT22;201;48.758;9.290;2022-11-20T07:00:06;5.60;9.10
429;DHT22;201;48.758;9.290;2022-11-20T07:02:31;5.60;8.80
429;DHT22;201;48.758;9.290;2022-11-20T07:04:57;5.60;8.80
429;DHT22;201;48.758;9.290;2022-11-20T07:07:22;5.60;8.30
429;DHT22;201;48.758;9.290;2022-11-20T07:09:48;5.60;8.40
429;DHT22;201;48.758;9.290;2022-11-20T07:12:13;5.60;8.20
429;DHT22;201;48.758;9.290;2022-11-20T07:14:39;5.60;8.60
429;DHT22;201;48.758;9.290;2022-11-20T07:17:05;5.60;8.80
429;DHT22;201;48.758;9.290;2022-11-20T07:19:30;5.60;8.80
429;DHT22;201;48.758;9.290;2022-11-20T07:21:56;5.60;9.00
429;DHT22;201;48.758;9.290;2022-11-20T07:24:21;5.70;9.30
429;DHT22;201;48.758;9.290;2022-11-20T07:26:47;5.80;8.90
429;DHT22;201;48.758;9.290;2022-11-20T07:29:14;5.90;8.50
429;DHT22;201;48.758;9.290;2022-11-20T07:31:40;6.00;7.60
429;DHT22;201;48.758;9.290;2022-11-20T07:34:05;6.00;7.60
429;DHT22;201;48.758;9.290;2022-11-20T07:36:31;6.10;7.60
429;DHT22;201;48.758;9.290;2022-11-20T07:38:56;6.30;7.00
429;DHT22;201;48.758;9.290;2022-11-20T07:41:22;6.50;6.10
429;DHT22;201;48.758;9.290;2022-11-20T07:43:47;6.60;5.90
429;DHT22;201;48.758;9.290;2022-11-20T07:46:13;6.50;5.60
429;DHT22;201;48.758;9.290;2022-11-20T07:48:39;6.50;5.80
429;DHT22;201;48.758;9.290;2022-11-20T07:51:04;6.60;6.20
429;DHT22;201;48.758;9.290;2022-11-20T07:53:30;6.60;5.90
429;DHT22;201;48.758;9.290;2022-11-20T07:55:59;6.60;5.70
429;DHT22;201;48.758;9.290;2022-11-20T07:58:25;6.50;5.50
429;DHT22;201;48.758;9.290;2022-11-20T08:00:50;6.40;5.80
429;DHT22;201;48.758;9.290;2022-11-20T08:03:16;6.40;6.20
429;DHT22;201;48.758;9.290;2022-11-20T08:05:42;6.40;6.30
429;DHT22;201;48.758;9.290;2022-11-20T08:08:07;6.40;6.40
429;DHT22;201;48.758;9.290;2022-11-20T08:10:33;6.40;6.30
429;DHT22;201;48.758;9.290;2022-11-20T08:12:59;6.40;6.70
429;DHT22;201;48.758;9.290;2022-11-20T08:15:50;6.40;6.90
429;DHT22;201;48.758;9.290;2022-11-20T08:18:16;6.50;7.80
429;DHT22;201;48.758;9.290;2022-11-20T08:20:43;6.40;7.10
429;DHT22;201;48.758;9.290;2022-11-20T08:23:08;6.40;7.80
429;DHT22;201;48.758;9.290;2022-11-20T08:25:36;6.40;7.80
429;DHT22;201;48.758;9.290;2022-11-20T08:28:07;6.40;7.90
429;DHT22;201;48.758;9.290;2022-11-20T08:30:36;6.40;7.90
429;DHT22;201;48.758;9.290;2022-11-20T08:33:07;6.50;7.90
429;DHT22;201;48.758;9.290;2022-11-20T08:35:37;6.50;8.50
429;DHT22;201;48.758;9.290;2022-11-20T08:38:04;6.50;7.90
429;DHT22;201;48.758;9.290;2022-11-20T08:40:30;6.60;7.80
429;DHT22;201;48.758;9.290;2022-11-20T08:42:56;6.60;7.20
429;DHT22;201;48.758;9.290;2022-11-20T08:45:22;6.70;7.60
429;DHT22;201;48.758;9.290;2022-11-20T08:47:47;6.70;7.90
429;DHT22;201;48.758;9.290;2022-11-20T08:50:14;6.70;7.40
429;DHT22;201;48.758;9.290;2022-11-20T08:52:40;6.70;7.30
429;DHT22;201;48.758;9.290;2022-11-20T08:55:07;6.80;7.20
429;DHT22;201;48.758;9.290;2022-11-20T08:57:33;6.80;6.70
429;DHT22;201;48.758;9.290;2022-11-20T09:00:07;6.80;7.30
429;DHT22;201;48.758;9.290;2022-11-20T09:02:33;6.80;7.10
429;DHT22;201;48.758;9.290;2022-11-20T09:04:59;6.90;7.10
429;DHT22;201;48.758;9.290;2022-11-20T09:07:24;7.00;6.70
429;DHT22;201;48.758;9.290;2022-11-20T09:09:50;7.10;6.90
429;DHT22;201;48.758;9.290;2022-11-20T09:12:15;7.40;6.60
429;DHT22;201;48.758;9.290;2022-11-20T09:14:41;7.40;5.70
429;DHT22;201;48.758;9.290;2022-11-20T09:17:07;7.50;5.80
429;DHT22;201;48.758;9.290;2022-11-20T09:19:33;7.50;5.40
429;DHT22;201;48.758;9.290;2022-11-20T09:21:59;7.40;5.60
429;DHT22;201;48.758;9.290;2022-11-20T09:24:25;7.30;5.30
429;DHT22;201;48.758;9.290;2022-11-20T09:26:51;7.20;5.10
429;DHT22;201;48.758;9.290;2022-11-20T09:29:17;7.20;5.80
429;DHT22;201;48.758;9.290;2022-11-20T09:31:42;7.20;5.20
429;DHT22;201;48.758;9.290;2022-11-20T09:34:08;7.20;5.70
429;DHT22;201;48.758;9.290;2022-11-20T09:36:35;7.20;5.60
429;DHT22;201;48.758;9.290;2022-11-20T09:39:00;7.30;5.70
429;DHT22;201;48.758;9.290;2022-11-20T09:47:11;7.50;6.00
429;DHT22;201;48.758;9.290;2022-11-20T09:50:06;7.50;5.40
429;DHT22;201;48.758;9.290;2022-11-20T09:52:42;7.50;5.20
429;DHT22;201;48.758;9.290;2022-11-20T09:55:11;7.40;5.20
429;DHT22;201;48.758;9.290;2022-11-20T09:57:41;7.40;5.90
429;DHT22;201;48.758;9.290;2022-11-20T10:00:13;7.40;5.20
429;DHT22;201;48.758;9.290;2022-11-20T10:07:57;7.40;4.40
429;DHT22;201;48.758;9.290;2022-11-20T10:10:45;7.50;5.30
429;DHT22;201;48.758;9.290;2022-11-20T10:16:23;7.50;4.80
429;DHT22;201;48.758;9.290;2022-11-20T10:26:48;7.50;4.70
429;DHT22;201;48.758;9.290;2022-11-20T10:29:27;7.40;4.70
429;DHT22;201;48.758;9.290;2022-11-20T10:32:02;7.30;4.80
429;DHT22;201;48.758;9.290;2022-11-20T10:34:38;7.20;4.90
429;DHT22;201;48.758;9.290;2022-11-20T10:37:13;7.20;5.80
429;DHT22;201;48.758;9.290;2022-11-20T10:40:00;7.20;6.80
429;DHT22;201;48.758;9.290;2022-11-20T10:42:41;7.20;7.50
429;DHT22;201;48.758;9.290;2022-11-20T10:45:36;7.10;8.30
429;DHT22;201;48.758;9.290;2022-11-20T10:48:23;7.10;8.30
429;DHT22;201;48.758;9.290;2022-11-20T10:50:58;7.00;9.50
429;DHT22;201;48.758;9.290;2022-11-20T10:53:31;7.00;10.20
429;DHT22;201;48.758;9.290;2022-11-20T11:01:26;7.00;11.90
429;DHT22;201;48.758;9.290;2022-11-20T11:03:53;7.00;12.00
429;DHT22;201;48.758;9.290;2022-11-20T11:06:43;6.90;12.00
429;DHT22;201;48.758;9.290;2022-11-20T11:09:16;6.90;12.50
429;DHT22;201;48.758;9.290;2022-11-20T11:11:42;6.80;12.80
429;DHT22;201;48.758;9.290;2022-11-20T11:14:15;6.80;13.20
429;DHT22;201;48.758;9.290;2022-11-20T11:19:15;6.90;13.70
429;DHT22;201;48.758;9.290;2022-11-20T11:21:55;6.90;13.30
429;DHT22;201;48.758;9.290;2022-11-20T11:24:24;6.90;13.50
429;DHT22;201;48.758;9.290;2022-11-20T11:26:56;6.90;13.50
429;DHT22;201;48.758;9.290;2022-11-20T11:29:22;6.80;13.20
429;DHT22;201;48.758;9.290;2022-11-20T11:31:49;6.90;13.70
429;DHT22;201;48.758;9.290;2022-11-20T11:34:16;6.90;14.10
429;DHT22;201;48.758;9.290;2022-11-20T11:36:55;7.00;14.20
429;DHT22;201;48.758;9.290;2022-11-20T11:39:22;7.20;14.70
429;DHT22;201;48.758;9.290;2022-11-20T11:41:48;7.40;14.60
429;DHT22;201;48.758;9.290;2022-11-20T11:47:33;7.80;13.80
429;DHT22;201;48.758;9.290;2022-11-20T11:53:09;8.10;13.00
429;DHT22;201;48.758;9.290;2022-11-20T11:58:50;8.10;10.40
429;DHT22;201;48.758;9.290;2022-11-20T12:04:04;8.40;10.30
429;DHT22;201;48.758;9.290;2022-11-20T12:06:32;8.50;9.30
429;DHT22;201;48.758;9.290;2022-11-20T12:09:10;8.60;7.80
429;DHT22;201;48.758;9.290;2022-11-20T12:12:04;8.60;7.70
429;DHT22;201;48.758;9.290;2022-11-20T12:14:35;8.60;5.80
429;DHT22;201;48.758;9.290;2022-11-20T12:17:02;8.70;5.80
429;DHT22;201;48.758;9.290;2022-11-20T12:19:31;8.90;6.30
429;DHT22;201;48.758;9.290;2022-11-20T12:30:18;9.70;1.70
429;DHT22;201;48.758;9.290;2022-11-20T12:36:02;9.70;1.00
429;DHT22;201;48.758;9.290;2022-11-20T12:38:45;9.50;1.00
429;DHT22;201;48.758;9.290;2022-11-20T12:53:36;8.30;1.00
429;DHT22;201;48.758;9.290;2022-11-20T12:56:06;8.20;1.00
429;DHT22;201;48.758;9.290;2022-11-20T12:58:46;8.10;1.00
429;DHT22;201;48.758;9.290;2022-11-20T13:01:37;8.10;1.00
429;DHT22;201;48.758;9.290;2022-11-20T13:07:00;8.30;1.00
429;DHT22;201;48.758;9.290;2022-11-20T13:09:30;8.40;1.00
429;DHT22;201;48.758;9.290;2022-11-20T13:12:06;8.60;1.00
429;DHT22;201;48.758;9.290;2022-11-20T13:14:41;8.70;1.00
429;DHT22;201;48.758;9.290;2022-11-20T13:17:22;8.80;1.00
429;DHT22;201;48.758;9.290;2022-11-20T13:19:56;9.00;1.00
429;DHT22;201;48.758;9.290;2022-11-20T13:22:29;9.00;1.00
429;DHT22;201;48.758;9.290;2022-11-20T13:24:54;8.80;1.00
429;DHT22;201;48.758;9.290;2022-11-20T13:27:23;8.70;1.00
429;DHT22;201;48.758;9.290;2022-11-20T13:32:48;8.50;1.00
429;DHT22;201;48.758;9.290;2022-11-20T13:35:25;8.50;1.00
429;DHT22;201;48.758;9.290;2022-11-20T13:38:17;8.50;1.00
429;DHT22;201;48.758;9.290;2022-11-20T13:40:56;8.60;1.00
429;DHT22;201;48.758;9.290;2022-11-20T13:45:59;8.80;1.00
429;DHT22;201;48.758;9.290;2022-11-20T13:48:30;8.80;1.00
429;DHT22;201;48.758;9.290;2022-11-20T13:51:20;8.80;1.00
429;DHT22;201;48.758;9.290;2022-11-20T13:54:06;9.00;1.00
429;DHT22;201;48.758;9.290;2022-11-20T13:59:55;9.20;1.00
429;DHT22;201;48.758;9.290;2022-11-20T14:02:24;9.30;1.00
429;DHT22;201;48.758;9.290;2022-11-20T14:04:53;9.40;1.00
429;DHT22;201;48.758;9.290;2022-11-20T14:07:21;9.40;1.00
429;DHT22;201;48.758;9.290;2022-11-20T14:09:55;9.40;1.00
429;DHT22;201;48.758;9.290;2022-11-20T14:12:29;9.50;1.00
429;DHT22;201;48.758;9.290;2022-11-20T14:14:55;9.40;1.00
429;DHT22;201;48.758;9.290;2022-11-20T14:17:29;9.40;1.00
429;DHT22;201;48.758;9.290;2022-11-20T14:20:02;9.40;1.00
429;DHT22;201;48.758;9.290;2022-11-20T14:22:28;9.40;1.00
429;DHT22;201;48.758;9.290;2022-11-20T14:27:42;9.10;1.00
429;DHT22;201;48.758;9.290;2022-11-20T14:30:26;8.90;1.00
429;DHT22;201;48.758;9.290;2022-11-20T14:32:56;8.60;1.00
429;DHT22;201;48.758;9.290;2022-11-20T14:35:34;8.20;1.00
429;DHT22;201;48.758;9.290;2022-11-20T14:38:01;8.10;1.00
429;DHT22;201;48.758;9.290;2022-11-20T14:40:31;7.90;1.00
429;DHT22;201;48.758;9.290;2022-11-20T14:42:58;7.80;1.00
429;DHT22;201;48.758;9.290;2022-11-20T14:45:25;7.70;1.00
429;DHT22;201;48.758;9.290;2022-11-20T14:47:53;7.70;1.00
429;DHT22;201;48.758;9.290;2022-11-20T14:50:28;7.60;1.00
429;DHT22;201;48.758;9.290;2022-11-20T14:52:58;7.50;1.00
429;DHT22;201;48.758;9.290;2022-11-20T14:55:36;7.40;1.00
429;DHT22;201;48.758;9.290;2022-11-20T14:58:20;7.30;1.00
429;DHT22;201;48.758;9.290;2022-11-20T15:01:06;7.20;1.00
429;DHT22;201;48.758;9.290;2022-11-20T15:03:37;7.00;1.00
429;DHT22;201;48.758;9.290;2022-11-20T15:06:04;6.90;1.00
429;DHT22;201;48.758;9.290;2022-11-20T15:08:31;6.80;1.00
429;DHT22;201;48.758;9.290;2022-11-20T15:10:56;6.70;1.00
429;DHT22;201;48.758;9.290;2022-11-20T15:15:56;6.70;1.30
429;DHT22;201;48.758;9.290;2022-11-20T15:18:26;6.70;1.30
429;DHT22;201;48.758;9.290;2022-11-20T15:20:55;6.70;1.60
429;DHT22;201;48.758;9.290;2022-11-20T15:23:21;6.60;1.80
429;DHT22;201;48.758;9.290;2022-11-20T15:25:48;6.50;2.10
429;DHT22;201;48.758;9.290;2022-11-20T15:28:44;6.50;2.50
429;DHT22;201;48.758;9.290;2022-11-20T15:31:14;6.40;2.80
429;DHT22;201;48.758;9.290;2022-11-20T15:33:40;6.30;2.90
429;DHT22;201;48.758;9.290;2022-11-20T15:36:06;6.20;3.00
429;DHT22;201;48.758;9.290;2022-11-20T15:38:32;6.20;3.30
429;DHT22;201;48.758;9.290;2022-11-20T15:40:57;6.10;3.30
429;DHT22;201;48.758;9.290;2022-11-20T15:43:23;6.10;3.90
429;DHT22;201;48.758;9.290;2022-11-20T15:45:58;6.00;3.90
429;DHT22;201;48.758;9.290;2022-11-20T15:48:29;6.00;4.30
429;DHT22;201;48.758;9.290;2022-11-20T15:51:03;6.00;4.30
429;DHT22;201;48.758;9.290;2022-11-20T15:53:31;6.00;4.40
429;DHT22;201;48.758;9.290;2022-11-20T15:55:56;6.00;4.30
429;DHT22;201;48.758;9.290;2022-11-20T15:58:22;6.00;4.50
429;DHT22;201;48.758;9.290;2022-11-20T16:00:52;6.00;4.70
429;DHT22;201;48.758;9.290;2022-11-20T16:03:18;5.90;5.10
429;DHT22;201;48.758;9.290;2022-11-20T16:05:44;5.80;5.30
429;DHT22;201;48.758;9.290;2022-11-20T16:08:10;5.80;5.50
429;DHT22;201;48.758;9.290;2022-11-20T16:10:39;5.80;5.90
429;DHT22;201;48.758;9.290;2022-11-20T16:13:10;5.80;6.00
429;DHT22;201;48.758;9.290;2022-11-20T16:15:57;5.80;6.60
429;DHT22;201;48.758;9.290;2022-11-20T16:18:23;5.70;6.80
429;DHT22;201;48.758;9.290;2022-11-20T16:20:51;5.70;7.90
429;DHT22;201;48.758;9.290;2022-11-20T16:23:18;5.70;7.40
429;DHT22;201;48.758;9.290;2022-11-20T16:25:45;5.70;7.30
429;DHT22;201;48.758;9.290;2022-11-20T16:28:11;5.70;7.30
429;DHT22;201;48.758;9.290;2022-11-20T16:30:37;5.80;7.40
429;DHT22;201;48.758;9.290;2022-11-20T16:33:03;5.80;7.40
429;DHT22;201;48.758;9.290;2022-11-20T16:35:30;5.90;7.50
429;DHT22;201;48.758;9.290;2022-11-20T16:37:57;6.00;7.50
429;DHT22;201;48.758;9.290;2022-11-20T16:40:23;6.00;7.00
429;DHT22;201;48.758;9.290;2022-11-20T16:42:49;6.10;7.10
429;DHT22;201;48.758;9.290;2022-11-20T16:45:15;6.10;7.00
429;DHT22;201;48.758;9.290;2022-11-20T16:47:41;6.20;7.00
429;DHT22;201;48.758;9.290;2022-11-20T16:50:07;6.20;7.00
429;DHT22;201;48.758;9.290;2022-11-20T16:52:33;6.20;6.40
429;DHT22;201;48.758;9.290;2022-11-20T16:54:59;6.20;6.00
429;DHT22;201;48.758;9.290;2022-11-20T16:57:27;6.20;6.10
429;DHT22;201;48.758;9.290;2022-11-20T17:02:23;6.30;6.50
429;DHT22;201;48.758;9.290;2022-11-20T17:04:48;6.30;6.70
429;DHT22;201;48.758;9.290;2022-11-20T17:07:14;6.30;6.70
429;DHT22;201;48.758;9.290;2022-11-20T17:09:40;6.30;6.60
429;DHT22;201;48.758;9.290;2022-11-20T17:12:05;6.30;6.50
429;DHT22;201;48.758;9.290;2022-11-20T17:14:31;6.30;6.70
429;DHT22;201;48.758;9.290;2022-11-20T17:16:57;6.30;6.70
429;DHT22;201;48.758;9.290;2022-11-20T17:19:23;6.30;6.70
429;DHT22;201;48.758;9.290;2022-11-20T17:21:48;6.30;6.80
429;DHT22;201;48.758;9.290;2022-11-20T17:24:14;6.30;6.80
429;DHT22;201;48.758;9.290;2022-11-20T17:26:43;6.20;6.50
429;DHT22;201;48.758;9.290;2022-11-20T17:29:16;6.20;6.60
429;DHT22;201;48.758;9.290;2022-11-20T17:31:43;6.20;6.50
429;DHT22;201;48.758;9.290;2022-11-20T17:34:13;6.20;6.30
429;DHT22;201;48.758;9.290;2022-11-20T17:36:39;6.20;5.80
429;DHT22;201;48.758;9.290;2022-11-20T17:39:10;6.20;6.00
429;DHT22;201;48.758;9.290;2022-11-20T17:41:35;6.20;5.80
429;DHT22;201;48.758;9.290;2022-11-20T17:44:01;6.20;5.50
429;DHT22;201;48.758;9.290;2022-11-20T17:46:29;6.20;5.60
429;DHT22;201;48.758;9.290;2022-11-20T17:48:57;6.10;4.90
429;DHT22;201;48.758;9.290;2022-11-20T17:51:25;6.10;4.90
429;DHT22;201;48.758;9.290;2022-11-20T17:53:57;6.10;4.80
429;DHT22;201;48.758;9.290;2022-11-20T17:56:23;6.10;4.50
429;DHT22;201;48.758;9.290;2022-11-20T17:59:10;6.20;4.20
429;DHT22;201;48.758;9.290;2022-11-20T18:01:36;6.10;3.70
429;DHT22;201;48.758;9.290;2022-11-20T18:04:02;6.20;3.80
429;DHT22;201;48.758;9.290;2022-11-20T18:06:29;6.20;3.90
429;DHT22;201;48.758;9.290;2022-11-20T18:08:58;6.20;3.50
429;DHT22;201;48.758;9.290;2022-11-20T18:11:26;6.20;3.30
429;DHT22;201;48.758;9.290;2022-11-20T18:13:57;6.20;3.30
429;DHT22;201;48.758;9.290;2022-11-20T18:16:46;6.20;2.50
429;DHT22;201;48.758;9.290;2022-11-20T18:19:16;6.20;2.60
429;DHT22;201;48.758;9.290;2022-11-20T18:21:42;6.20;2.60
429;DHT22;201;48.758;9.290;2022-11-20T18:24:08;6.20;3.00
429;DHT22;201;48.758;9.290;2022-11-20T18:26:33;6.30;2.40
429;DHT22;201;48.758;9.290;2022-11-20T18:28:59;6.30;2.00
429;DHT22;201;48.758;9.290;2022-11-20T18:31:24;6.30;1.30
429;DHT22;201;48.758;9.290;2022-11-20T18:33:50;6.40;1.30
429;DHT22;201;48.758;9.290;2022-11-20T18:36:22;6.30;1.30
429;DHT22;201;48.758;9.290;2022-11-20T18:38:50;6.40;2.30
429;DHT22;201;48.758;9.290;2022-11-20T18:41:17;6.40;2.70
429;DHT22;201;48.758;9.290;2022-11-20T18:44:03;6.30;2.00
429;DHT22;201;48.758;9.290;2022-11-20T18:46:48;6.30;2.30
429;DHT22;201;48.758;9.290;2022-11-20T18:49:14;6.30;2.70
429;DHT22;201;48.758;9.290;2022-11-20T18:51:40;6.30;2.80